Time;durP1;ratioP1;P1;durP2;ratioP2;P2;SDS_P1;SDS_P2;PMS_P1;PMS_P2;Temp;Humidity;BMP_temperature;BMP_pressure;BME280_temperature;BME280_humidity;BME280_pressure;Samples;Min_cycle;Max_cycle;Signal;HPM_P1;HPM_P2
2023/03/29 03:59:25;;;;;;;11.55;3.10;;;;;;;-1.37;83.58;101249.91;5307551;33;31745;-88
2023/03/29 04:02:30;;;;;;;5.47;3.22;;;;;;;-1.44;89.30;101248.50;5309070;33;33978;-88
2023/03/29 04:05:38;;;;;;;5.75;3.35;;;;;;;-1.52;88.33;101249.84;5306101;33;33962;-88
2023/03/29 04:08:41;;;;;;;5.25;3.33;;;;;;;-1.49;84.85;101250.56;5337443;33;34695;-88
2023/03/29 04:11:45;;;;;;;5.45;3.05;;;;;;;-1.44;85.18;101259.06;5325126;33;35327;-88
2023/03/29 04:14:48;;;;;;;3.97;3.28;;;;;;;-1.49;86.35;101250.56;5330495;33;34110;-88
2023/03/29 04:17:51;;;;;;;5.05;3.22;;;;;;;-1.49;86.45;101247.91;5360954;28;35026;-86
2023/03/29 04:20:55;;;;;;;5.50;3.28;;;;;;;-1.53;87.93;101250.78;5313145;33;35299;-86
2023/03/29 04:23:58;;;;;;;5.70;3.50;;;;;;;-1.51;86.20;101247.13;5325161;33;35300;-86
2023/03/29 04:27:01;;;;;;;3.97;3.20;;;;;;;-1.46;86.71;101254.84;5315770;33;35383;-89
2023/03/29 04:30:06;;;;;;;5.65;3.70;;;;;;;-1.49;91.17;101260.25;5330332;33;34731;-89
2023/03/29 04:33:20;;;;;;;4.10;3.05;;;;;;;-1.55;93.89;101263.19;5314904;33;33841;-86
2023/03/29 04:36:28;;;;;;;4.90;3.53;;;;;;;-1.58;93.92;101256.28;5326472;33;33844;-86
2023/03/29 04:39:33;;;;;;;12.18;3.65;;;;;;;-1.57;95.42;101257.16;5312618;33;34006;-86
2023/03/29 04:42:37;;;;;;;4.75;3.35;;;;;;;-1.55;93.95;101255.28;5309712;33;35197;-86
2023/03/29 04:45:40;;;;;;;6.40;3.58;;;;;;;-1.56;96.49;101253.59;5312577;33;34032;-86
2023/03/29 04:48:43;;;;;;;6.80;4.53;;;;;;;-1.50;95.17;101254.09;5296226;33;34762;-86
2023/03/29 04:51:47;;;;;;;7.85;5.05;;;;;;;-1.47;93.38;101246.03;5295751;33;33594;-86
2023/03/29 04:54:50;;;;;;;4.25;3.25;;;;;;;-1.40;92.93;101250.06;5309230;33;34528;-86
2023/03/29 04:57:54;;;;;;;9.45;4.05;;;;;;;-1.25;91.79;101245.78;5308812;33;33878;-86
2023/03/29 05:00:57;;;;;;;7.87;4.37;;;;;;;-1.05;88.91;101255.28;5295127;33;35301;-86
2023/03/29 05:04:03;;;;;;;6.35;4.10;;;;;;;-0.89;90.06;101257.97;5284826;33;35151;-86
2023/03/29 05:07:07;;;;;;;5.30;3.70;;;;;;;-0.68;88.02;101266.50;5284762;33;34475;-86
2023/03/29 05:10:10;;;;;;;8.75;4.10;;;;;;;-0.46;85.74;101263.56;5295418;33;34626;-86
2023/03/29 05:13:13;;;;;;;9.75;5.15;;;;;;;-0.26;82.41;101259.78;5295752;33;34583;-86
2023/03/29 05:16:16;;;;;;;6.35;4.87;;;;;;;-0.08;81.07;101260.53;5271849;33;34493;-86
2023/03/29 05:19:22;;;;;;;7.80;4.45;;;;;;;-0.06;81.60;101262.16;5296379;33;34599;-86
2023/03/29 05:22:25;;;;;;;12.57;5.28;;;;;;;-0.02;85.43;101260.19;5298340;33;34010;-86
2023/03/29 05:25:29;;;;;;;10.77;5.18;;;;;;;0.02;84.78;101255.56;5312954;33;35417;-86
2023/03/29 05:28:32;;;;;;;7.62;4.43;;;;;;;0.09;84.52;101254.25;5319294;33;34639;-85
2023/03/29 05:31:36;;;;;;;3.35;3.00;;;;;;;0.22;77.95;101252.59;5302736;33;33937;-86
2023/03/29 05:34:40;;;;;;;4.40;4.00;;;;;;;0.57;68.38;101252.31;5324345;33;36001;-85
2023/03/29 05:37:43;;;;;;;6.93;3.85;;;;;;;0.82;66.78;101259.63;5286131;33;34346;-85
2023/03/29 05:40:46;;;;;;;6.35;4.07;;;;;;;1.02;69.82;101256.59;5293130;33;33409;-85
2023/03/29 05:43:49;;;;;;;8.85;4.97;;;;;;;1.13;70.23;101259.44;5299050;33;33941;-86
2023/03/29 05:46:53;;;;;;;6.07;4.47;;;;;;;1.19;70.51;101258.22;5300733;33;33480;-85
2023/03/29 05:49:56;;;;;;;4.03;3.22;;;;;;;1.38;71.05;101263.22;5282900;33;34063;-86
2023/03/29 05:52:59;;;;;;;10.50;3.28;;;;;;;1.58;62.67;101273.44;5310542;33;34216;-86
2023/03/29 05:56:02;;;;;;;3.35;2.97;;;;;;;1.65;65.74;101270.38;5299363;33;33838;-86
2023/03/29 05:59:07;;;;;;;5.93;2.50;;;;;;;1.75;63.57;101272.31;5316592;33;34579;-86
2023/03/29 06:02:11;;;;;;;4.82;2.80;;;;;;;1.94;60.05;101279.97;5285671;33;33847;-86
2023/03/29 06:05:15;;;;;;;4.35;3.25;;;;;;;2.09;56.11;101271.94;5312789;33;33508;-86
2023/03/29 06:08:21;;;;;;;4.65;3.10;;;;;;;2.26;56.61;101271.69;5299783;33;33541;-86
2023/03/29 06:11:25;;;;;;;3.40;2.80;;;;;;;2.37;56.94;101279.78;5301579;33;33381;-86
2023/03/29 06:14:30;;;;;;;3.85;2.60;;;;;;;2.46;54.70;101281.81;5299712;33;33884;-86
2023/03/29 06:17:35;;;;;;;4.12;2.75;;;;;;;2.54;55.48;101283.09;5315629;33;34681;-86
2023/03/29 06:20:38;;;;;;;4.30;2.90;;;;;;;2.57;57.46;101280.25;5329544;33;35194;-90
2023/03/29 06:23:41;;;;;;;6.45;3.55;;;;;;;2.56;58.71;101279.38;5302606;33;34143;-90
2023/03/29 06:26:45;;;;;;;2.90;2.70;;;;;;;2.75;56.17;101278.13;5308297;33;33581;-87
2023/03/29 06:29:48;;;;;;;5.95;3.30;;;;;;;2.79;55.88;101291.13;5293165;33;34297;-86
2023/03/29 06:32:51;;;;;;;3.85;2.87;;;;;;;2.88;55.53;101292.31;5300580;33;33983;-86
2023/03/29 06:35:56;;;;;;;4.10;3.00;;;;;;;2.99;55.84;101288.91;5296011;33;35192;-87
2023/03/29 06:38:59;;;;;;;4.03;2.83;;;;;;;3.05;55.06;101285.81;5322776;33;34000;-87
2023/03/29 06:42:06;;;;;;;3.95;2.65;;;;;;;3.17;51.01;101296.44;5298445;33;33806;-87
2023/03/29 06:45:24;;;;;;;2.90;2.60;;;;;;;3.03;50.28;101296.53;5299859;33;34547;-86
2023/03/29 06:48:33;;;;;;;5.47;2.97;;;;;;;3.23;51.72;101296.97;5306666;33;33423;-87
2023/03/29 06:51:36;;;;;;;6.22;3.37;;;;;;;3.52;51.38;101301.09;5308906;33;33811;-86
2023/03/29 06:54:39;;;;;;;4.12;2.62;;;;;;;3.75;51.49;101301.25;5293205;33;33977;-87
2023/03/29 06:57:42;;;;;;;6.43;2.70;;;;;;;3.93;49.92;101299.91;5285738;33;34619;-86
2023/03/29 07:00:50;;;;;;;4.60;2.90;;;;;;;3.70;48.77;101298.91;5315957;33;34922;-86
2023/03/29 07:03:56;;;;;;;3.28;2.75;;;;;;;4.02;48.04;101296.56;5297721;33;33682;-86
2023/03/29 07:07:00;;;;;;;5.50;3.28;;;;;;;3.87;50.37;101305.69;5317832;33;33879;-86
2023/03/29 07:10:04;;;;;;;5.25;2.90;;;;;;;4.01;49.50;101307.34;5318619;33;33866;-86
2023/03/29 07:13:12;;;;;;;6.65;3.30;;;;;;;4.20;48.05;101306.81;5304862;33;33911;-86
2023/03/29 07:16:15;;;;;;;6.97;3.80;;;;;;;4.13;48.28;101303.78;5313854;33;34080;-86
2023/03/29 07:19:21;;;;;;;5.25;3.30;;;;;;;4.44;48.47;101317.47;5302142;33;33910;-86
2023/03/29 07:22:26;;;;;;;5.95;3.78;;;;;;;4.61;48.82;101310.88;5318127;33;34729;-87
2023/03/29 07:25:29;;;;;;;8.70;3.53;;;;;;;4.51;48.19;101318.72;5302220;33;33912;-86
2023/03/29 07:28:33;;;;;;;9.65;3.83;;;;;;;4.41;48.05;101320.38;5309414;33;35313;-86
2023/03/29 07:31:39;;;;;;;4.12;3.40;;;;;;;4.44;49.03;101317.47;5316810;33;33954;-87
2023/03/29 07:34:43;;;;;;;5.30;3.55;;;;;;;4.44;48.00;101322.78;5294750;33;34769;-88
2023/03/29 07:37:47;;;;;;;6.05;3.00;;;;;;;4.50;47.05;101327.66;5308442;33;34362;-86
2023/03/29 07:40:52;;;;;;;4.30;2.70;;;;;;;4.32;47.13;101328.06;5311041;33;33617;-87
2023/03/29 07:44:03;;;;;;;5.00;2.65;;;;;;;4.47;45.44;101330.56;5303248;33;33928;-87
2023/03/29 07:47:07;;;;;;;4.45;2.53;;;;;;;4.83;44.80;101326.09;5328132;33;33836;-87
2023/03/29 07:50:13;;;;;;;5.10;2.75;;;;;;;5.02;44.67;101337.03;5323728;33;34932;-87
2023/03/29 07:53:16;;;;;;;5.07;2.67;;;;;;;5.34;44.47;101333.69;5314107;33;35172;-90
2023/03/29 07:56:19;;;;;;;3.22;2.47;;;;;;;5.38;44.40;101328.00;5307860;33;33888;-91
2023/03/29 07:59:22;;;;;;;3.60;2.83;;;;;;;5.65;42.63;101326.78;5311711;33;34745;-89
2023/03/29 08:02:26;;;;;;;4.97;2.83;;;;;;;5.59;42.39;101327.28;5300012;33;33604;-88
2023/03/29 08:05:29;;;;;;;3.30;2.47;;;;;;;5.97;42.08;101334.03;5305586;33;34066;-87
2023/03/29 08:08:43;;;;;;;4.12;2.05;;;;;;;6.18;40.65;101328.78;5310822;33;33919;-86
2023/03/29 08:11:47;;;;;;;3.33;2.17;;;;;;;5.99;39.53;101324.91;5298877;33;33879;-86
2023/03/29 08:14:49;;;;;;;4.32;2.37;;;;;;;6.08;40.39;101326.00;5316771;33;34900;-86
2023/03/29 08:17:53;;;;;;;2.65;2.12;;;;;;;6.09;40.73;101323.22;5320744;33;36569;-86
2023/03/29 08:20:56;;;;;;;3.75;2.20;;;;;;;6.39;41.44;101329.69;5322171;33;35197;-86
2023/03/29 08:24:00;;;;;;;3.92;2.10;;;;;;;6.47;38.75;101318.34;5307425;33;35328;-86
2023/03/29 08:27:03;;;;;;;3.87;2.50;;;;;;;6.61;39.05;101319.84;5304823;33;34955;-86
2023/03/29 08:30:08;;;;;;;2.12;1.75;;;;;;;6.92;38.12;101324.31;5309739;33;34148;-86
2023/03/29 08:33:11;;;;;;;2.92;1.55;;;;;;;6.64;35.15;101315.13;5332804;33;35411;-86
2023/03/29 08:36:15;;;;;;;3.08;1.90;;;;;;;6.78;35.53;101311.25;5315912;33;35075;-86
2023/03/29 08:39:18;;;;;;;2.70;1.95;;;;;;;7.14;34.91;101309.94;5330430;33;34108;-86
2023/03/29 08:42:29;;;;;;;3.22;1.77;;;;;;;7.21;33.80;101304.91;5323521;33;34322;-87
2023/03/29 08:46:02;;;;;;;1.92;1.70;;;;;;;7.75;33.50;101316.25;5328099;33;35248;-86
2023/03/29 08:49:08;;;;;;;2.42;2.20;;;;;;;8.04;34.27;101310.94;5308682;33;34789;-86
2023/03/29 08:52:35;;;;;;;3.55;2.12;;;;;;;7.95;34.67;101316.16;5321278;33;34481;-86
2023/03/29 08:55:42;;;;;;;2.30;2.10;;;;;;;8.50;36.46;101302.28;5326263;33;34049;-86
2023/03/29 08:58:50;;;;;;;3.65;2.53;;;;;;;8.74;36.61;101296.47;5326188;33;33791;-86
2023/03/29 09:01:56;;;;;;;2.45;2.17;;;;;;;8.55;35.25;101301.87;5325694;33;34426;-86
2023/03/29 09:05:19;;;;;;;2.58;2.37;;;;;;;8.16;33.92;101294.63;5319850;33;35351;-88
2023/03/29 09:08:24;;;;;;;7.32;2.50;;;;;;;7.93;34.93;101290.50;5328759;33;34390;-86
2023/03/29 09:11:55;;;;;;;4.22;2.50;;;;;;;7.86;35.85;101289.31;5313637;33;34120;-87
2023/03/29 09:15:13;;;;;;;3.37;2.47;;;;;;;7.81;37.18;101292.44;5321536;33;33900;-86
2023/03/29 09:18:35;;;;;;;4.68;2.75;;;;;;;7.44;36.58;101284.13;5308357;33;33740;-86
2023/03/29 09:21:49;;;;;;;4.10;2.20;;;;;;;7.56;37.53;101275.00;5309507;33;34524;-86
2023/03/29 09:25:00;;;;;;;5.40;2.67;;;;;;;7.63;36.04;101276.12;5311367;33;34552;-86
2023/03/29 09:28:38;;;;;;;3.10;2.50;;;;;;;7.84;39.06;101267.16;5308743;33;33669;-87
2023/03/29 09:31:43;;;;;;;3.85;2.90;;;;;;;7.90;37.10;101267.47;5307750;33;34648;-86
2023/03/29 09:35:16;;;;;;;2.85;2.35;;;;;;;7.86;36.83;101259.84;5295575;33;34160;-86
2023/03/29 09:38:21;;;;;;;6.37;2.70;;;;;;;7.61;37.89;101267.41;5322753;33;33808;-87
2023/03/29 09:41:40;;;;;;;3.78;2.30;;;;;;;7.63;37.14;101269.94;5325203;33;34723;-86
2023/03/29 09:44:51;;;;;;;3.08;2.55;;;;;;;7.64;37.51;101264.47;5316384;33;34810;-86
2023/03/29 09:48:16;;;;;;;4.80;2.40;;;;;;;7.72;38.25;101256.59;5318785;33;33705;-86
2023/03/29 09:51:25;;;;;;;4.50;2.47;;;;;;;8.03;37.01;101255.62;5319854;33;35307;-86
2023/03/29 09:54:29;;;;;;;;;;;;;;;7.86;35.36;101255.31;5321987;33;35231;-87
2023/03/29 09:57:34;;;;;;;2.50;2.30;;;;;;;7.64;35.34;101247.53;5295738;33;276927;-87
2023/03/29 10:00:38;;;;;;;3.25;2.53;;;;;;;7.67;36.34;101248.09;5299082;33;34096;-86
2023/03/29 10:03:51;;;;;;;2.90;2.35;;;;;;;8.15;37.94;101233.06;5314404;33;34536;-86
2023/03/29 10:06:54;;;;;;;3.03;2.10;;;;;;;8.28;35.86;101232.78;5331563;33;34563;-86
2023/03/29 10:09:57;;;;;;;3.28;2.45;;;;;;;8.68;35.54;101232.59;5299674;33;34371;-87
2023/03/29 10:13:04;;;;;;;2.40;1.90;;;;;;;8.81;34.39;101224.25;5310313;33;34571;-86
2023/03/29 10:16:17;;;;;;;2.10;1.90;;;;;;;8.88;34.48;101222.66;5320521;33;34151;-86
2023/03/29 10:19:35;;;;;;;4.30;2.08;;;;;;;8.78;34.35;101208.44;5297343;33;32475;-86
2023/03/29 10:22:47;;;;;;;3.37;2.30;;;;;;;9.09;38.54;101212.53;5290397;33;33911;-90
2023/03/29 10:25:50;;;;;;;2.20;2.00;;;;;;;9.36;35.53;101204.66;5292974;33;34144;-91
2023/03/29 10:28:56;;;;;;;3.53;2.20;;;;;;;9.70;37.69;101203.03;5288620;33;33529;-87
2023/03/29 10:31:58;;;;;;;5.47;2.40;;;;;;;9.89;33.94;101194.00;5294811;33;35247;-86
2023/03/29 10:35:32;;;;;;;2.67;2.28;;;;;;;9.59;32.97;101205.09;5284357;33;33917;-86
2023/03/29 10:38:36;;;;;;;2.30;2.10;;;;;;;9.60;35.25;101198.72;5294874;33;33405;-86
2023/03/29 10:41:40;;;;;;;6.50;2.40;;;;;;;9.23;33.88;101195.09;5286993;33;33885;-87
2023/03/29 10:44:52;;;;;;;2.22;2.03;;;;;;;9.17;34.32;101186.78;5298370;33;34633;-86
2023/03/29 10:47:57;;;;;;;3.95;2.40;;;;;;;9.43;35.27;101179.72;5293375;33;34396;-86
2023/03/29 10:51:04;;;;;;;2.87;2.10;;;;;;;9.93;34.93;101181.06;5298326;33;33587;-86
2023/03/29 10:54:12;;;;;;;2.55;2.15;;;;;;;9.71;33.36;101182.34;5295527;33;34039;-86
2023/03/29 10:57:26;;;;;;;4.15;2.60;;;;;;;10.16;36.92;101179.59;5300245;33;33985;-86
2023/03/29 11:00:48;;;;;;;3.12;2.58;;;;;;;10.54;34.80;101177.56;5283572;33;34071;-86
2023/03/29 11:03:56;;;;;;;4.07;2.15;;;;;;;10.80;33.58;101174.03;5301653;33;35270;-86
2023/03/29 11:07:05;;;;;;;3.80;2.28;;;;;;;10.97;33.40;101172.25;5295223;33;33872;-86
2023/03/29 11:10:20;;;;;;;4.75;2.80;;;;;;;11.58;34.08;101161.19;5319012;33;34209;-86
2023/03/29 11:13:45;;;;;;;4.60;2.60;;;;;;;11.55;31.90;101160.66;5300673;33;35552;-86
2023/03/29 11:17:23;;;;;;;3.62;2.20;;;;;;;11.58;35.38;101160.31;5294876;33;34616;-86
2023/03/29 11:20:46;;;;;;;5.62;2.35;;;;;;;12.14;32.53;101155.19;5318518;33;33790;-86
2023/03/29 11:24:37;;;;;;;2.65;2.20;;;;;;;12.66;34.84;101152.94;5319871;33;33644;-86
2023/03/29 11:28:03;;;;;;;5.87;2.62;;;;;;;12.63;31.05;101149.75;5296787;33;33530;-86
2023/03/29 11:31:21;;;;;;;2.90;2.30;;;;;;;13.29;33.17;101147.69;5314885;33;34130;-86
2023/03/29 11:34:28;;;;;;;3.70;2.70;;;;;;;13.32;31.55;101145.47;5295840;33;34985;-91
2023/03/29 11:37:43;;;;;;;4.57;2.58;;;;;;;14.03;29.99;101134.50;5305864;33;34378;-91
2023/03/29 11:40:55;;;;;;;5.37;2.70;;;;;;;14.00;31.24;101133.00;5313171;33;33735;-86
2023/03/29 11:44:16;;;;;;;5.47;2.87;;;;;;;13.90;29.64;101128.87;5322048;33;33939;-86
2023/03/29 11:47:21;;;;;;;2.75;2.37;;;;;;;14.20;29.16;101130.62;5307387;33;33784;-87
2023/03/29 11:50:38;;;;;;;3.40;2.28;;;;;;;14.10;29.08;101121.06;5297381;33;33994;-87
2023/03/29 11:53:54;;;;;;;2.75;2.28;;;;;;;14.85;28.24;101123.72;5311803;33;34450;-86
2023/03/29 11:57:13;;;;;;;4.68;2.87;;;;;;;17.58;27.76;101104.19;5321264;33;35188;-86
2023/03/29 12:00:37;;;;;;;3.08;2.10;;;;;;;18.35;23.82;101098.22;5326694;33;34559;-86
2023/03/29 12:03:46;;;;;;;3.70;2.20;;;;;;;19.02;23.05;101107.09;5311075;33;34004;-86
2023/03/29 12:07:16;;;;;;;4.12;2.00;;;;;;;19.86;22.24;101098.88;5309119;33;33455;-87
2023/03/29 12:10:26;;;;;;;3.40;2.10;;;;;;;20.14;21.87;101093.81;5326202;33;33895;-91
2023/03/29 12:13:41;;;;;;;2.33;1.83;;;;;;;20.34;21.81;101098.28;5311122;33;35237;-87
2023/03/29 12:16:53;;;;;;;4.35;1.90;;;;;;;22.24;20.91;101086.12;5318879;33;34116;-87
2023/03/29 12:20:05;;;;;;;3.28;2.17;;;;;;;23.58;20.31;101082.38;5337683;33;34567;-87
2023/03/29 12:23:13;;;;;;;2.55;1.85;;;;;;;23.19;18.41;101075.84;5321061;33;35336;-87
2023/03/29 12:26:41;;;;;;;3.37;2.12;;;;;;;22.25;19.22;101079.56;5310052;33;34178;-87
2023/03/29 12:30:13;;;;;;;2.33;1.80;;;;;;;20.38;21.13;101078.44;5321427;33;34065;-87
2023/03/29 12:33:50;;;;;;;2.00;1.80;;;;;;;21.37;22.00;101069.34;5317940;33;33958;-87
2023/03/29 12:37:20;;;;;;;5.78;1.92;;;;;;;19.62;21.55;101059.50;5306283;33;35170;-86
2023/03/29 12:40:27;;;;;;;1.67;1.45;;;;;;;20.88;21.65;101060.25;5309507;33;34715;-87
2023/03/29 12:43:42;;;;;;;4.55;2.35;;;;;;;21.79;20.31;101061.97;5296664;33;34179;-87
2023/03/29 12:46:53;;;;;;;3.05;2.10;;;;;;;20.41;20.77;101048.97;5309326;33;33818;-87
2023/03/29 12:49:58;;;;;;;2.72;1.75;;;;;;;20.11;21.46;101050.53;5323272;33;34577;-87
2023/03/29 12:53:20;;;;;;;2.30;1.87;;;;;;;21.63;21.24;101049.75;5321128;33;33748;-87
2023/03/29 12:56:54;;;;;;;4.37;1.80;;;;;;;20.55;21.94;101051.38;5323217;33;33847;-87
2023/03/29 13:00:17;;;;;;;4.00;2.10;;;;;;;19.28;21.92;101047.97;5309333;33;33960;-87
2023/03/29 13:03:28;;;;;;;3.20;1.52;;;;;;;19.57;22.16;101049.25;5308571;33;34914;-86
2023/03/29 13:06:34;;;;;;;3.40;1.83;;;;;;;19.75;21.74;101055.91;5299167;33;34500;-86
2023/03/29 13:09:50;;;;;;;3.72;2.10;;;;;;;20.84;21.22;101049.78;5299388;33;33668;-87
2023/03/29 13:12:53;;;;;;;5.82;2.00;;;;;;;19.66;22.85;101052.59;5314928;33;33774;-86
2023/03/29 13:33:09;;;;;;;2.83;2.50;;;;;;;21.95;20.71;101017.38;5279241;33;32664;-89
2023/03/29 13:36:27;;;;;;;2.47;2.28;;;;;;;20.19;22.88;101019.34;5309440;33;32750;-90
2023/03/29 13:39:35;;;;;;;3.33;2.60;;;;;;;17.62;25.28;101015.63;5329780;33;34419;-88
2023/03/29 13:42:40;;;;;;;3.58;2.55;;;;;;;15.64;29.08;101004.41;5309603;33;35360;-90
2023/03/29 13:45:43;;;;;;;5.78;2.87;;;;;;;16.17;29.68;101006.69;5313690;33;32626;-89
2023/03/29 13:49:15;;;;;;;3.40;2.70;;;;;;;16.93;27.90;101012.12;5326540;33;34113;-89
2023/03/29 13:52:42;;;;;;;3.87;2.72;;;;;;;19.80;24.32;101002.25;5312854;33;33937;-88
2023/03/29 13:55:51;;;;;;;3.40;2.70;;;;;;;20.59;22.49;100986.94;5326769;33;34639;-90
2023/03/29 13:59:04;;;;;;;3.62;2.80;;;;;;;20.05;23.75;100985.81;5312442;33;33499;-91
2023/03/29 14:02:18;;;;;;;3.53;2.45;;;;;;;21.05;22.98;100985.47;5325764;33;33844;-89
2023/03/29 14:05:31;;;;;;;4.35;2.67;;;;;;;20.23;23.94;100985.00;5325284;33;34240;-89
2023/03/29 14:08:38;;;;;;;2.50;2.25;;;;;;;19.00;23.72;100991.84;5330815;27;34547;-89
2023/03/29 14:28:28;;;;;;;4.07;2.70;;;;;;;17.96;28.08;100976.47;5268506;33;20205;-89
2023/03/29 14:31:34;;;;;;;3.58;2.35;;;;;;;17.13;25.69;100970.53;5246862;33;33908;-88
2023/03/29 14:34:38;;;;;;;3.12;2.40;;;;;;;16.48;27.55;100968.22;5306292;28;34387;-89
2023/03/29 14:37:42;;;;;;;4.32;2.50;;;;;;;15.64;28.78;100971.00;5264256;33;32216;-89
2023/03/29 14:40:45;;;;;;;5.20;2.70;;;;;;;15.16;29.67;100966.19;5257545;33;34510;-88
2023/03/29 14:43:49;;;;;;;2.95;2.65;;;;;;;14.35;30.65;100978.97;5339926;27;33716;-90
2023/03/29 14:50:59;;;;;;;5.72;2.72;;;;;;;13.17;33.22;100971.47;948477;27;20462;-90
2023/03/29 14:54:04;;;;;;;5.30;2.62;;;;;;;12.64;34.48;100968.59;5308398;33;33172;-90
2023/03/29 14:57:14;;;;;;;4.57;2.78;;;;;;;12.02;34.70;100971.16;5296249;28;34986;-89
2023/03/29 15:00:25;;;;;;;5.12;2.97;;;;;;;11.65;35.65;100971.72;5325375;28;33926;-89
2023/03/29 15:03:42;;;;;;;3.47;2.80;;;;;;;11.69;35.99;100971.19;5350344;27;34108;-89
2023/03/29 15:14:58;;;;;;;3.40;2.83;;;;;;;11.01;37.80;100964.31;5308240;33;33142;-88
2023/03/29 15:18:05;;;;;;;4.15;3.28;;;;;;;10.85;40.42;100967.81;5322817;27;35010;-88
2023/03/29 15:21:13;;;;;;;4.65;3.08;;;;;;;10.66;39.63;100963.56;5353969;27;33516;-87
2023/03/29 15:24:22;;;;;;;4.45;3.28;;;;;;;10.73;40.99;100965.59;5372940;28;33655;-87
2023/03/29 15:27:25;;;;;;;4.57;3.33;;;;;;;10.53;42.03;100963.19;5368621;27;33646;-86
2023/03/29 15:30:37;;;;;;;4.07;2.90;;;;;;;10.64;41.33;100959.34;5352095;28;34222;-87
2023/03/29 15:41:51;;;;;;;5.50;3.40;;;;;;;10.80;41.37;100950.47;4746840;27;20118;-86
2023/03/29 15:44:55;;;;;;;3.62;3.00;;;;;;;10.84;42.03;100941.87;5343273;28;33964;-89
2023/03/29 15:48:00;;;;;;;6.20;3.05;;;;;;;10.92;39.38;100946.44;5308338;33;33996;-89
2023/03/29 15:51:04;;;;;;;3.90;2.42;;;;;;;10.91;40.15;100939.38;5309800;33;33855;-88
2023/03/29 15:54:08;;;;;;;4.60;2.92;;;;;;;10.70;39.68;100939.81;5308270;33;34225;-89
2023/03/29 15:57:14;;;;;;;2.95;2.65;;;;;;;10.35;40.50;100938.19;5309397;33;34350;-89
